This is the latest recevied weather packets stored in our database for station/object K6GMW. If no packets are shown the sender has not sent any weather packets the latest 10 day(s).
| Time | Temp. | Humidity | Pressure | Rain* | Wind** | Luminosity | Snow |
|---|---|---|---|---|---|---|---|
| 1788376432 | 35° C | 49% | 1015.3 hPa | 0 mm | - | 295 W/m² | - |
| 1788376127 | 34.44° C | 49% | 1015.3 hPa | 0 mm | - | 948 W/m² | - |
| 1788375827 | 34.44° C | 48% | 1015.3 hPa | 0 mm | - | 661 W/m² | - |
| 1788375523 | 33.89° C | 50% | 1015.3 hPa | 0 mm | - | 1009 W/m² | - |
| 1788375218 | 34.44° C | 49% | 1015.4 hPa | 0 mm | - | 956 W/m² | - |
| 1788374914 | 34.44° C | 50% | 1015.6 hPa | 0 mm | - | 979 W/m² | - |
| 1788374609 | 34.44° C | 50% | 1015.6 hPa | 0 mm | - | 960 W/m² | - |
| 1788374305 | 33.89° C | 52% | 1015.6 hPa | 0 mm | - | 952 W/m² | - |
| 1788374001 | 33.33° C | 52% | 1015.9 hPa | 0 mm | - | 974 W/m² | - |
| 1788373697 | 33.89° C | 51% | 1015.8 hPa | 0 mm | - | 1004 W/m² | - |
| 1788373393 | 33.89° C | 50% | 1016.1 hPa | 0 mm | - | 998 W/m² | - |
| 1788373089 | 35° C | 48% | 1016.1 hPa | 0 mm | - | 624 W/m² | - |
| 1788372790 | 34.44° C | 51% | 1016.1 hPa | 0 mm | - | 1000 W/m² | - |
| 1788372484 | 34.44° C | 51% | 1016.2 hPa | 0 mm | - | 967 W/m² | - |
| 1788372180 | 33.89° C | 52% | 1016.5 hPa | 0 mm | - | 964 W/m² | - |
| 1788371875 | 33.33° C | 54% | 1016.4 hPa | 0 mm | - | 1022 W/m² | - |
| 1788371570 | 32.78° C | 55% | 1016.8 hPa | 0 mm | - | 994 W/m² | - |
| 1788371266 | 33.33° C | 54% | 1016.7 hPa | 0 mm | - | 1011 W/m² | - |
| 1788370962 | 32.78° C | 56% | 1016.8 hPa | 0 mm | - | 291 W/m² | - |
| 1788370657 | 32.78° C | 57% | 1016.9 hPa | 0 mm | - | 256 W/m² | - |
| 1788370357 | 33.89° C | 55% | 1017 hPa | 0 mm | - | 978 W/m² | - |
| 1788370051 | 32.78° C | 55% | 1017.1 hPa | 0 mm | - | 963 W/m² | - |
| 1788369751 | 32.78° C | 57% | 1017.2 hPa | 0 mm | - | 982 W/m² | - |
| 1788369446 | 32.78° C | 57% | 1017.5 hPa | 0 mm | - | 987 W/m² | - |
| 1788369142 | 32.22° C | 61% | 1017.5 hPa | 0 mm | - | 1058 W/m² | - |
* Rain latest hour (hover to see other rain measurements)
** Current wind speed in m/s (hover to see current wind gust speed)